Time;durP1;ratioP1;P1;durP2;ratioP2;P2;SDS_P1;SDS_P2;PMS_P1;PMS_P2;Temp;Humidity;BMP_temperature;BMP_pressure;BME280_temperature;BME280_humidity;BME280_pressure;Samples;Min_cycle;Max_cycle;Signal;HPM_P1;HPM_P2
2021/05/27 00:01:30;;;;;;;1.53;0.90;;;19.70;99.90;;;;;;5015293;28;20268;-92
2021/05/27 00:04:01;;;;;;;2.73;0.80;;;19.80;99.90;;;;;;5014247;28;20272;-92
2021/05/27 00:06:34;;;;;;;1.07;0.90;;;19.70;99.90;;;;;;5015803;28;20292;-92
2021/05/27 00:09:05;;;;;;;3.00;0.83;;;19.60;99.90;;;;;;5015216;28;20202;-94
2021/05/27 00:11:35;;;;;;;1.67;0.80;;;19.60;99.90;;;;;;5015357;28;20276;-92
2021/05/27 00:14:07;;;;;;;2.47;0.80;;;19.50;99.90;;;;;;5015875;28;20198;-92
2021/05/27 00:16:37;;;;;;;2.03;0.83;;;19.50;99.90;;;;;;5009645;28;20328;-93
2021/05/27 00:19:08;;;;;;;2.57;0.87;;;19.70;99.90;;;;;;5039464;28;20212;-95
2021/05/27 00:21:39;;;;;;;2.30;0.77;;;18.90;99.90;;;;;;5019696;28;20232;-95
2021/05/27 00:24:10;;;;;;;1.23;1.00;;;18.80;99.90;;;;;;5017658;28;20235;-95
2021/05/27 00:26:41;;;;;;;2.33;1.07;;;18.90;99.90;;;;;;5001147;28;20233;-94
2021/05/27 00:29:12;;;;;;;1.13;0.80;;;18.90;99.90;;;;;;5018129;28;20240;-94
2021/05/27 00:31:43;;;;;;;2.77;1.00;;;19.00;99.90;;;;;;5018403;28;20205;-95
2021/05/27 00:34:14;;;;;;;1.70;0.80;;;19.20;99.90;;;;;;5017638;28;20751;-94
2021/05/27 00:36:46;;;;;;;2.17;0.83;;;19.50;99.90;;;;;;5018656;28;20308;-94
2021/05/27 00:39:18;;;;;;;3.33;1.00;;;19.80;99.90;;;;;;5021126;28;20304;-95
2021/05/27 00:41:51;;;;;;;1.00;0.90;;;19.80;99.90;;;;;;5023257;28;20205;-96
2021/05/27 00:44:36;;;;;;;1.50;0.80;;;19.50;99.90;;;;;;5034368;28;20209;-95
2021/05/27 00:47:10;;;;;;;2.80;1.00;;;19.90;99.90;;;;;;5022949;28;20197;-94
2021/05/27 00:49:42;;;;;;;2.43;0.90;;;20.10;99.90;;;;;;5038890;28;20209;-95
2021/05/27 00:52:15;;;;;;;2.23;0.93;;;20.50;99.90;;;;;;5035557;28;20233;-94
2021/05/27 00:54:45;;;;;;;0.97;0.80;;;20.80;99.90;;;;;;5032514;28;20205;-94
2021/05/27 00:57:25;;;;;;;2.20;0.90;;;20.50;99.90;;;;;;5033441;28;20210;-94
2021/05/27 00:59:57;;;;;;;3.43;1.10;;;19.90;99.90;;;;;;5005443;28;20210;-95
2021/05/27 01:02:28;;;;;;;1.13;0.80;;;19.60;99.90;;;;;;4995708;28;20203;-94
2021/05/27 01:07:46;;;;;;;2.20;0.80;;;19.60;99.90;;;;;;5030779;28;20220;-94
2021/05/27 01:10:21;;;;;;;3.40;1.00;;;19.40;99.90;;;;;;5033720;28;20224;-93
2021/05/27 01:12:53;;;;;;;1.40;1.10;;;18.80;99.90;;;;;;5029138;28;20240;-93
2021/05/27 01:15:31;;;;;;;2.50;1.00;;;18.30;99.90;;;;;;5023304;28;20629;-93
2021/05/27 01:18:03;;;;;;;1.77;1.10;;;18.20;99.90;;;;;;5005820;28;20236;-93
2021/05/27 01:20:34;;;;;;;1.93;1.20;;;18.30;99.90;;;;;;5024219;28;20248;-93
2021/05/27 01:23:09;;;;;;;2.00;0.90;;;18.20;99.90;;;;;;5026755;28;20222;-93
2021/05/27 01:25:42;;;;;;;2.30;1.00;;;18.50;99.90;;;;;;5022159;28;20304;-93
2021/05/27 01:28:13;;;;;;;1.63;1.07;;;18.50;99.90;;;;;;5020556;28;20209;-94
2021/05/27 01:30:45;;;;;;;2.00;1.10;;;18.70;99.90;;;;;;5020368;28;20336;-94
2021/05/27 01:33:17;;;;;;;1.90;0.80;;;18.80;99.90;;;;;;5020443;28;20225;-94
2021/05/27 01:35:47;;;;;;;1.20;1.00;;;19.00;99.90;;;;;;5020282;28;20248;-95
2021/05/27 01:38:23;;;;;;;3.53;1.00;;;18.70;99.90;;;;;;5028001;28;20222;-95
2021/05/27 01:40:54;;;;;;;2.63;0.80;;;18.60;99.90;;;;;;5027902;28;20216;-95
2021/05/27 01:43:25;;;;;;;1.23;0.90;;;18.60;99.90;;;;;;5027021;28;20248;-95
2021/05/27 01:45:55;;;;;;;1.30;1.10;;;18.30;99.90;;;;;;5026697;28;20286;-95
2021/05/27 01:48:27;;;;;;;2.33;0.97;;;18.30;99.90;;;;;;5025260;28;20231;-94
2021/05/27 01:50:58;;;;;;;2.67;1.10;;;18.30;99.90;;;;;;5006728;28;20289;-94
2021/05/27 01:53:30;;;;;;;1.37;0.90;;;17.70;99.90;;;;;;5028034;28;20729;-93
2021/05/27 01:56:01;;;;;;;1.30;0.90;;;18.00;99.90;;;;;;5036205;28;20323;-94
2021/05/27 01:58:32;;;;;;;1.83;1.00;;;17.80;99.90;;;;;;5037406;28;20221;-94
2021/05/27 02:01:03;;;;;;;1.10;0.90;;;18.20;99.90;;;;;;5037335;28;20231;-91
2021/05/27 02:03:34;;;;;;;2.83;1.10;;;18.50;99.90;;;;;;5038450;28;20224;-93
2021/05/27 02:06:05;;;;;;;1.07;0.83;;;18.70;99.90;;;;;;5036723;28;20240;-94
2021/05/27 02:08:36;;;;;;;1.67;0.77;;;18.60;99.90;;;;;;5028244;28;20308;-93
2021/05/27 02:11:07;;;;;;;1.67;0.97;;;18.40;99.90;;;;;;5015706;28;20276;-93
2021/05/27 02:13:39;;;;;;;3.13;1.10;;;18.20;99.90;;;;;;5016304;28;20256;-93
2021/05/27 02:16:09;;;;;;;1.67;0.93;;;18.00;99.90;;;;;;5015895;28;20233;-92
2021/05/27 02:18:39;;;;;;;2.27;0.90;;;17.80;99.90;;;;;;5015953;28;20285;-93
2021/05/27 02:21:09;;;;;;;4.00;1.20;;;17.90;99.90;;;;;;5020324;28;20221;-93
2021/05/27 02:23:42;;;;;;;3.07;1.20;;;17.70;99.90;;;;;;5015726;28;20236;-93
2021/05/27 02:26:12;;;;;;;1.33;1.03;;;17.50;99.90;;;;;;5015456;28;20245;-93
2021/05/27 02:28:43;;;;;;;1.50;0.90;;;17.30;99.90;;;;;;5015338;28;20301;-92
2021/05/27 02:31:14;;;;;;;0.90;0.80;;;17.30;99.90;;;;;;5015314;28;20237;-92
2021/05/27 02:33:44;;;;;;;2.00;0.90;;;17.20;99.90;;;;;;5014476;28;20202;-93
2021/05/27 02:36:15;;;;;;;2.20;1.10;;;17.20;99.90;;;;;;5015508;28;20578;-92
2021/05/27 02:38:47;;;;;;;1.03;0.73;;;17.10;99.90;;;;;;5017112;28;20309;-91
2021/05/27 02:41:18;;;;;;;0.90;0.90;;;17.10;99.90;;;;;;5021117;28;20421;-91
2021/05/27 02:43:49;;;;;;;2.93;1.17;;;17.20;99.90;;;;;;5022076;28;20569;-93
2021/05/27 02:46:20;;;;;;;1.30;0.87;;;17.10;99.90;;;;;;5036010;28;20193;-93
2021/05/27 02:48:53;;;;;;;1.77;1.10;;;17.10;99.90;;;;;;5036078;28;20228;-92
2021/05/27 02:51:24;;;;;;;1.97;1.00;;;17.10;99.90;;;;;;5015858;28;20206;-93
2021/05/27 02:53:55;;;;;;;1.50;0.80;;;17.00;99.90;;;;;;5027799;28;20213;-93
2021/05/27 02:56:26;;;;;;;3.07;1.10;;;16.90;99.90;;;;;;5027329;28;20229;-92
2021/05/27 02:58:57;;;;;;;3.03;1.20;;;16.80;99.90;;;;;;5021200;28;20550;-93
2021/05/27 03:01:27;;;;;;;2.70;1.00;;;16.80;99.90;;;;;;5020321;28;20228;-93
2021/05/27 03:03:58;;;;;;;1.80;1.10;;;16.70;99.90;;;;;;5002216;28;20209;-92
2021/05/27 03:06:29;;;;;;;1.63;1.00;;;16.60;99.90;;;;;;5037252;28;20213;-93
2021/05/27 03:09:01;;;;;;;2.13;0.93;;;16.50;99.90;;;;;;5036425;28;20213;-93
2021/05/27 03:11:31;;;;;;;4.57;1.80;;;16.50;99.90;;;;;;5006235;28;20241;-93
2021/05/27 03:14:02;;;;;;;2.70;1.37;;;16.50;99.90;;;;;;5017523;28;20209;-93
2021/05/27 03:16:32;;;;;;;1.77;1.10;;;16.40;99.90;;;;;;5016264;28;20756;-92
2021/05/27 03:19:03;;;;;;;2.47;1.10;;;16.30;99.90;;;;;;5016641;28;20212;-92
2021/05/27 03:21:33;;;;;;;3.23;1.10;;;16.30;99.90;;;;;;5016683;28;20217;-93
2021/05/27 03:24:06;;;;;;;1.87;1.03;;;16.20;99.90;;;;;;5015156;28;20248;-92
2021/05/27 03:26:39;;;;;;;0.93;0.93;;;16.10;99.90;;;;;;5014706;28;20216;-92
2021/05/27 03:29:10;;;;;;;2.00;1.00;;;16.10;99.90;;;;;;4997029;28;20213;-92
2021/05/27 03:31:40;;;;;;;1.40;1.03;;;16.00;99.90;;;;;;5015252;28;20202;-92
2021/05/27 03:34:11;;;;;;;4.63;1.00;;;15.90;99.90;;;;;;5014188;28;20237;-93
2021/05/27 03:36:42;;;;;;;1.80;0.90;;;15.90;99.90;;;;;;4997284;28;20303;-92
2021/05/27 03:39:13;;;;;;;1.20;0.80;;;15.80;99.90;;;;;;5014248;28;20218;-92
2021/05/27 03:41:44;;;;;;;3.80;1.20;;;15.80;99.90;;;;;;5003820;28;20706;-92
2021/05/27 03:44:18;;;;;;;1.67;0.93;;;15.80;99.90;;;;;;5013074;28;20291;-93
2021/05/27 03:46:49;;;;;;;1.57;0.90;;;15.70;99.90;;;;;;5000672;28;20240;-93
2021/05/27 03:49:19;;;;;;;1.23;0.77;;;15.60;99.90;;;;;;5016786;28;20236;-93
2021/05/27 03:51:49;;;;;;;2.10;0.63;;;15.60;99.90;;;;;;5018899;28;20214;-93
2021/05/27 03:54:21;;;;;;;1.43;0.97;;;15.60;99.90;;;;;;5017064;28;20629;-93
2021/05/27 03:56:51;;;;;;;2.23;0.87;;;15.60;99.90;;;;;;5018117;28;20268;-93
2021/05/27 04:02:09;;;;;;;1.10;1.00;;;15.50;99.90;;;;;;4998598;28;20220;-93
2021/05/27 04:07:27;;;;;;;2.30;1.30;;;15.40;99.90;;;;;;5018117;28;20209;-93
2021/05/27 04:10:00;;;;;;;1.97;1.40;;;15.40;99.90;;;;;;5017563;28;20271;-93
2021/05/27 04:12:46;;;;;;;2.13;1.33;;;15.30;99.90;;;;;;4999841;28;20719;-93
2021/05/27 04:15:29;;;;;;;1.33;1.10;;;15.30;99.90;;;;;;5016631;28;20652;-93
2021/05/27 04:18:01;;;;;;;1.33;1.07;;;15.30;99.90;;;;;;5012479;28;20280;-93
2021/05/27 04:20:33;;;;;;;1.37;0.90;;;15.20;99.90;;;;;;5017759;28;20297;-92
2021/05/27 04:23:06;;;;;;;1.00;0.90;;;15.20;99.90;;;;;;5018080;28;20715;-93
2021/05/27 04:25:38;;;;;;;1.57;1.20;;;15.20;99.90;;;;;;5016099;28;20248;-93
2021/05/27 04:28:08;;;;;;;4.30;1.60;;;15.20;99.90;;;;;;5017942;28;20309;-93
2021/05/27 04:33:28;;;;;;;9.93;3.13;;;15.10;99.90;;;;;;5017706;28;20609;-92
2021/05/27 04:35:58;;;;;;;4.17;1.40;;;14.80;99.90;;;;;;5016256;28;20256;-92
2021/05/27 04:38:28;;;;;;;6.43;1.67;;;14.70;99.90;;;;;;5017707;28;20221;-92
2021/05/27 04:41:00;;;;;;;3.40;1.80;;;14.60;99.90;;;;;;5016685;28;20320;-91
2021/05/27 04:43:31;;;;;;;2.77;1.97;;;14.60;99.90;;;;;;5015814;28;20670;-91
2021/05/27 04:46:01;;;;;;;2.67;1.90;;;14.60;99.90;;;;;;5016941;28;20217;-92
2021/05/27 04:48:32;;;;;;;4.07;2.10;;;14.60;99.90;;;;;;5018584;28;20209;-92
2021/05/27 04:51:02;;;;;;;2.63;1.53;;;14.60;99.90;;;;;;5018549;28;20292;-93
2021/05/27 04:53:33;;;;;;;2.37;1.70;;;14.60;99.90;;;;;;5017838;28;20229;-93
2021/05/27 04:56:06;;;;;;;1.70;1.50;;;14.60;99.90;;;;;;5001911;28;20214;-93
2021/05/27 04:58:37;;;;;;;1.43;1.10;;;14.60;99.90;;;;;;5017571;28;20625;-90
2021/05/27 05:01:07;;;;;;;4.93;1.30;;;14.60;99.90;;;;;;5016011;28;20229;-90
2021/05/27 05:03:38;;;;;;;8.90;2.73;;;14.50;99.90;;;;;;5016961;28;20241;-92
2021/05/27 05:06:09;;;;;;;4.63;2.20;;;14.50;99.90;;;;;;5016792;28;20548;-92
2021/05/27 05:08:40;;;;;;;4.87;2.17;;;14.50;99.90;;;;;;5018199;28;20631;-92
2021/05/27 05:11:13;;;;;;;7.87;3.13;;;14.40;99.90;;;;;;5016830;28;20202;-92
2021/05/27 05:13:43;;;;;;;7.27;2.67;;;14.30;99.90;;;;;;5016943;28;20292;-92
2021/05/27 05:16:14;;;;;;;5.03;2.00;;;14.30;99.90;;;;;;5017077;28;20241;-92
2021/05/27 05:18:44;;;;;;;4.80;1.70;;;14.20;99.90;;;;;;5017435;28;20683;-93
2021/05/27 05:21:15;;;;;;;5.93;1.87;;;14.20;99.90;;;;;;5019397;28;20276;-93
2021/05/27 05:23:45;;;;;;;4.90;1.70;;;14.20;99.90;;;;;;5020420;28;20655;-94
2021/05/27 05:26:17;;;;;;;2.47;1.27;;;14.10;99.90;;;;;;5010602;28;20268;-93
2021/05/27 05:28:48;;;;;;;4.00;1.40;;;14.10;99.90;;;;;;5038216;28;20186;-93
2021/05/27 05:31:19;;;;;;;1.93;1.30;;;14.10;99.90;;;;;;5026059;28;20236;-92
2021/05/27 05:33:54;;;;;;;1.87;1.43;;;14.10;99.90;;;;;;5016291;28;20393;-92
2021/05/27 05:36:25;;;;;;;3.00;1.00;;;14.10;99.90;;;;;;5037415;28;20292;-92
2021/05/27 05:38:56;;;;;;;3.27;1.40;;;14.10;99.90;;;;;;5019465;28;20739;-93
2021/05/27 05:41:29;;;;;;;2.53;1.70;;;14.10;99.90;;;;;;5034675;28;20271;-92
2021/05/27 05:43:59;;;;;;;2.43;1.50;;;14.00;99.90;;;;;;5014999;28;20236;-92
2021/05/27 05:46:29;;;;;;;3.57;1.70;;;14.00;99.90;;;;;;5015980;28;20305;-92
2021/05/27 05:49:00;;;;;;;1.87;1.70;;;14.00;99.90;;;;;;5016075;28;20233;-93
2021/05/27 05:51:31;;;;;;;2.23;1.30;;;14.00;99.90;;;;;;5016411;28;20241;-93
2021/05/27 05:54:02;;;;;;;5.03;1.50;;;14.00;99.90;;;;;;5015640;28;20288;-92
2021/05/27 05:56:36;;;;;;;3.00;1.53;;;14.00;99.90;;;;;;4998418;28;20880;-93
2021/05/27 05:59:07;;;;;;;1.90;1.60;;;14.00;99.90;;;;;;5014757;28;20212;-92
2021/05/27 06:01:37;;;;;;;2.97;1.30;;;14.00;99.90;;;;;;5015994;28;20202;-92
2021/05/27 06:04:08;;;;;;;3.03;1.20;;;13.90;99.90;;;;;;5015409;28;20247;-92
2021/05/27 06:06:38;;;;;;;2.80;1.60;;;13.90;99.90;;;;;;4999171;28;20209;-92
2021/05/27 06:09:09;;;;;;;3.20;1.50;;;13.90;99.90;;;;;;5016472;28;20233;-92
2021/05/27 06:11:45;;;;;;;2.27;1.20;;;13.90;99.90;;;;;;5015629;28;20726;-93
2021/05/27 06:14:27;;;;;;;2.73;1.67;;;13.90;99.90;;;;;;5014867;28;20212;-92
2021/05/27 06:16:57;;;;;;;1.90;1.40;;;13.90;99.90;;;;;;5015798;28;20268;-92
2021/05/27 06:19:51;;;;;;;1.73;1.53;;;13.80;99.90;;;;;;4937469;29;20227;-92
2021/05/27 06:22:58;;;;;;;3.73;1.83;;;13.80;99.90;;;;;;4955766;29;20635;-92
2021/05/27 06:25:43;;;;;;;1.40;1.27;;;13.80;99.90;;;;;;4954834;29;20649;-92
2021/05/27 06:28:34;;;;;;;2.27;1.30;;;13.80;99.90;;;;;;4956068;29;20238;-92
2021/05/27 06:34:29;;;;;;;3.07;1.60;;;13.70;99.90;;;;;;4954942;29;20214;-93
2021/05/27 06:37:11;;;;;;;2.73;1.57;;;13.70;99.90;;;;;;4954382;29;20243;-91
2021/05/27 06:39:51;;;;;;;4.13;1.40;;;13.70;99.90;;;;;;4955034;29;20226;-92
2021/05/27 06:42:22;;;;;;;1.63;1.40;;;13.60;99.90;;;;;;4955658;28;20274;-92
2021/05/27 06:44:54;;;;;;;2.50;1.50;;;13.70;99.90;;;;;;4954657;29;20211;-92
2021/05/27 06:47:24;;;;;;;1.80;1.40;;;13.60;99.90;;;;;;4955714;29;20231;-92
2021/05/27 06:49:54;;;;;;;2.07;1.43;;;13.70;99.90;;;;;;4955713;29;20290;-91
2021/05/27 06:52:25;;;;;;;2.03;1.67;;;13.60;99.90;;;;;;4940171;29;20396;-91
2021/05/27 06:54:56;;;;;;;3.53;1.43;;;13.60;99.90;;;;;;4956045;29;20220;-92
2021/05/27 06:57:26;;;;;;;1.97;1.40;;;13.60;99.90;;;;;;5018580;28;20632;-91
2021/05/27 06:59:58;;;;;;;4.80;1.50;;;13.60;99.90;;;;;;5027560;28;20283;-91
2021/05/27 07:02:30;;;;;;;4.20;1.57;;;13.60;99.90;;;;;;5027501;28;20209;-92
2021/05/27 07:05:01;;;;;;;3.50;2.00;;;13.60;99.90;;;;;;5018621;28;20208;-92
2021/05/27 07:07:32;;;;;;;3.93;1.50;;;13.40;99.90;;;;;;5022034;28;20205;-92
2021/05/27 07:10:03;;;;;;;2.17;1.50;;;13.30;99.90;;;;;;5020817;28;20213;-92
2021/05/27 07:12:33;;;;;;;2.73;1.23;;;13.20;99.90;;;;;;5016416;28;20236;-92
2021/05/27 07:15:06;;;;;;;1.60;1.27;;;13.20;99.90;;;;;;5014861;28;20222;-92
2021/05/27 07:17:36;;;;;;;1.97;1.40;;;13.20;99.90;;;;;;5015394;28;20253;-92
2021/05/27 07:20:09;;;;;;;3.60;1.77;;;13.20;99.90;;;;;;5015228;28;20205;-92
2021/05/27 07:22:40;;;;;;;3.20;1.47;;;13.10;99.90;;;;;;4997971;28;20245;-92
2021/05/27 07:25:15;;;;;;;3.57;1.43;;;13.10;99.90;;;;;;4997473;28;20205;-92
2021/05/27 07:27:50;;;;;;;2.07;1.20;;;13.10;99.90;;;;;;5015385;28;20280;-92
2021/05/27 07:30:25;;;;;;;2.27;1.40;;;13.00;99.90;;;;;;5015530;28;20726;-92
2021/05/27 07:32:56;;;;;;;3.07;1.10;;;13.00;99.90;;;;;;5015583;28;22028;-92
2021/05/27 07:35:28;;;;;;;4.43;1.50;;;13.00;99.90;;;;;;5019608;28;20640;-92
2021/05/27 07:38:01;;;;;;;3.33;1.47;;;12.90;99.90;;;;;;5023505;28;20237;-91
2021/05/27 07:40:32;;;;;;;1.70;1.50;;;12.90;99.90;;;;;;5019771;28;20221;-92
2021/05/27 07:43:03;;;;;;;4.80;2.00;;;12.90;99.90;;;;;;5024453;28;20205;-92
2021/05/27 07:45:35;;;;;;;3.33;2.00;;;12.90;99.90;;;;;;5035362;28;20217;-93
2021/05/27 07:48:06;;;;;;;2.77;1.60;;;12.90;99.90;;;;;;5036669;28;20198;-92
2021/05/27 07:50:36;;;;;;;2.57;1.17;;;12.80;99.90;;;;;;5024476;28;20232;-92
2021/05/27 07:53:08;;;;;;;1.57;1.47;;;12.80;99.90;;;;;;5021570;28;20269;-93
2021/05/27 07:55:39;;;;;;;1.70;1.40;;;12.70;99.90;;;;;;5016176;28;20652;-92
2021/05/27 07:58:10;;;;;;;1.87;1.23;;;12.60;99.90;;;;;;5015969;28;20789;-92
2021/05/27 08:00:43;;;;;;;4.50;1.37;;;12.60;99.90;;;;;;5014758;28;20277;-93
2021/05/27 08:03:14;;;;;;;3.97;1.57;;;12.50;99.90;;;;;;5020606;28;20252;-92
2021/05/27 08:05:44;;;;;;;4.33;1.27;;;12.40;99.90;;;;;;5038341;28;20607;-91
2021/05/27 08:08:15;;;;;;;2.67;1.63;;;12.40;99.90;;;;;;5007598;28;20216;-92
2021/05/27 08:10:46;;;;;;;3.13;1.57;;;12.40;99.90;;;;;;5022981;28;20612;-92
2021/05/27 08:13:17;;;;;;;4.50;1.80;;;12.30;99.90;;;;;;4982427;28;20206;-91
2021/05/27 08:15:50;;;;;;;2.07;1.40;;;12.40;99.90;;;;;;4995446;28;20247;-92
2021/05/27 08:18:22;;;;;;;2.70;1.50;;;12.30;99.90;;;;;;4995278;28;20241;-92
2021/05/27 08:20:52;;;;;;;3.23;2.00;;;12.40;99.90;;;;;;5012746;28;20284;-92
2021/05/27 08:23:23;;;;;;;2.77;2.10;;;12.50;99.90;;;;;;5037954;28;20281;-92
2021/05/27 08:25:54;;;;;;;3.00;2.37;;;12.60;99.90;;;;;;5037211;28;20202;-92
2021/05/27 08:28:24;;;;;;;2.63;2.03;;;12.60;99.90;;;;;;5036485;28;20604;-92
2021/05/27 08:30:56;;;;;;;2.77;2.07;;;12.60;99.90;;;;;;5027950;28;20206;-93
2021/05/27 08:33:27;;;;;;;3.90;1.90;;;12.60;99.90;;;;;;5000985;28;20217;-92
2021/05/27 08:35:58;;;;;;;1.77;1.50;;;12.60;99.90;;;;;;5003741;28;20233;-92
2021/05/27 08:38:30;;;;;;;5.63;2.37;;;12.70;99.90;;;;;;5006507;28;20257;-91
2021/05/27 08:41:00;;;;;;;1.90;1.70;;;12.70;99.90;;;;;;5006454;28;20293;-92
2021/05/27 08:43:33;;;;;;;2.63;2.13;;;12.70;99.90;;;;;;5006745;28;20217;-92
2021/05/27 08:46:06;;;;;;;6.57;2.43;;;12.80;99.90;;;;;;5011664;28;20214;-94
2021/05/27 08:48:37;;;;;;;2.70;1.93;;;12.90;99.90;;;;;;5023206;28;20205;-93
2021/05/27 08:51:08;;;;;;;3.97;1.77;;;12.90;99.90;;;;;;5029075;28;20326;-91
2021/05/27 08:53:38;;;;;;;4.43;2.00;;;13.00;99.90;;;;;;5024719;28;20254;-93
2021/05/27 08:56:11;;;;;;;5.13;2.03;;;13.00;99.90;;;;;;5002127;28;20683;-91
2021/05/27 08:58:41;;;;;;;3.93;2.00;;;13.00;99.90;;;;;;5000117;28;20234;-92
2021/05/27 09:01:13;;;;;;;3.43;1.90;;;13.00;99.90;;;;;;5011262;28;20219;-91
2021/05/27 09:03:46;;;;;;;3.50;1.73;;;12.90;99.90;;;;;;5028505;28;20212;-96
2021/05/27 09:06:17;;;;;;;3.23;1.70;;;12.90;99.90;;;;;;5029269;28;20237;-91
2021/05/27 09:08:48;;;;;;;4.63;2.30;;;12.90;99.90;;;;;;5031238;28;20229;-92
2021/05/27 09:11:22;;;;;;;3.83;1.70;;;12.90;99.90;;;;;;5031349;28;20212;-93
2021/05/27 09:13:55;;;;;;;3.70;1.70;;;12.90;99.90;;;;;;5029424;28;20572;-92
2021/05/27 09:16:27;;;;;;;4.73;1.77;;;12.90;99.90;;;;;;5024497;28;20233;-91
2021/05/27 09:18:57;;;;;;;2.70;1.50;;;12.90;99.90;;;;;;5027397;28;20245;-91
2021/05/27 09:21:38;;;;;;;3.57;1.77;;;12.90;99.90;;;;;;5032352;28;20301;-91
2021/05/27 09:24:12;;;;;;;3.17;1.70;;;12.90;99.90;;;;;;5013875;28;20205;-93
2021/05/27 09:26:53;;;;;;;3.23;1.70;;;13.00;99.90;;;;;;5027806;28;20205;-91
2021/05/27 09:29:25;;;;;;;3.67;1.60;;;12.90;99.90;;;;;;5033203;28;20754;-93
2021/05/27 09:32:02;;;;;;;3.60;1.90;;;13.00;99.90;;;;;;5046624;28;20209;-91
2021/05/27 09:34:45;;;;;;;2.23;1.60;;;13.00;99.90;;;;;;5043939;28;20208;-91
2021/05/27 09:37:28;;;;;;;3.07;1.47;;;12.90;99.90;;;;;;5042665;28;20219;-92
2021/05/27 09:40:00;;;;;;;3.57;1.50;;;12.90;99.90;;;;;;5038912;28;20205;-92
2021/05/27 09:42:49;;;;;;;3.50;1.47;;;12.80;99.90;;;;;;5020308;28;20213;-92
2021/05/27 09:45:20;;;;;;;1.77;1.40;;;12.80;99.90;;;;;;5038530;28;20208;-91
2021/05/27 09:47:52;;;;;;;2.50;1.70;;;12.80;99.90;;;;;;5038056;28;20266;-91
2021/05/27 09:50:32;;;;;;;2.03;1.50;;;12.80;99.90;;;;;;5036693;28;20248;-92
2021/05/27 09:53:19;;;;;;;3.23;1.57;;;12.80;99.90;;;;;;5036190;28;20746;-92
2021/05/27 09:55:50;;;;;;;3.40;1.70;;;12.70;99.90;;;;;;5038083;28;20212;-91
2021/05/27 09:58:21;;;;;;;3.33;2.03;;;12.70;99.90;;;;;;5036476;28;20271;-92
2021/05/27 10:00:52;;;;;;;3.63;1.80;;;12.70;99.90;;;;;;5045941;28;20209;-93
2021/05/27 10:03:27;;;;;;;4.53;1.93;;;12.70;99.90;;;;;;5056538;28;20201;-92
2021/05/27 10:06:00;;;;;;;5.77;2.10;;;12.60;99.90;;;;;;5055307;28;20204;-92
2021/05/27 10:08:48;;;;;;;3.70;1.47;;;12.50;99.90;;;;;;5044638;28;20201;-92
2021/05/27 10:11:20;;;;;;;2.77;1.63;;;12.50;99.90;;;;;;5041531;28;20295;-92
2021/05/27 10:13:53;;;;;;;2.27;1.27;;;12.50;99.90;;;;;;5038331;28;20216;-93
2021/05/27 10:16:25;;;;;;;1.47;1.30;;;12.50;99.90;;;;;;5041872;28;20205;-92
2021/05/27 10:18:58;;;;;;;2.30;1.40;;;12.40;99.90;;;;;;5036106;28;20714;-92
2021/05/27 10:21:28;;;;;;;1.53;1.17;;;12.40;99.90;;;;;;5036288;28;20232;-92
2021/05/27 10:24:00;;;;;;;2.93;1.20;;;12.40;99.90;;;;;;5021910;28;20275;-91
2021/05/27 10:26:30;;;;;;;1.50;1.10;;;12.40;99.90;;;;;;4999943;28;20221;-92
2021/05/27 10:29:23;;;;;;;4.43;1.30;;;12.40;99.90;;;;;;5002518;28;20215;-92
2021/05/27 10:31:54;;;;;;;2.67;1.07;;;12.30;99.90;;;;;;5015776;28;20214;-92
2021/05/27 10:34:46;;;;;;;2.33;1.10;;;12.30;99.90;;;;;;5014792;28;20213;-92
2021/05/27 10:37:42;;;;;;;1.93;1.37;;;12.30;99.90;;;;;;4998299;28;20277;-92
2021/05/27 10:40:38;;;;;;;2.07;1.13;;;12.40;99.90;;;;;;5015569;28;20283;-92
2021/05/27 10:43:11;;;;;;;1.30;0.87;;;12.30;99.90;;;;;;5015972;28;20244;-92
2021/05/27 10:46:10;;;;;;;2.50;1.00;;;12.30;99.90;;;;;;5014541;28;20237;-92
2021/05/27 10:48:43;;;;;;;2.13;1.30;;;12.20;99.90;;;;;;5015397;28;20629;-92
2021/05/27 10:51:26;;;;;;;4.67;1.33;;;12.20;99.90;;;;;;5015777;28;20679;-92
2021/05/27 10:53:58;;;;;;;2.60;1.10;;;12.20;99.90;;;;;;5014705;28;20289;-92
2021/05/27 10:56:46;;;;;;;2.10;1.13;;;12.20;99.90;;;;;;5014965;28;20664;-92
2021/05/27 10:59:18;;;;;;;2.03;0.97;;;12.20;99.90;;;;;;5014542;28;20244;-91
2021/05/27 11:01:57;;;;;;;1.23;0.73;;;12.20;99.90;;;;;;5014789;28;20693;-91
2021/05/27 11:04:34;;;;;;;2.30;1.10;;;12.20;99.90;;;;;;5014615;28;20281;-92
2021/05/27 11:07:23;;;;;;;2.53;1.00;;;12.20;99.90;;;;;;5016209;28;20229;-92
2021/05/27 11:09:58;;;;;;;3.23;0.90;;;12.20;99.90;;;;;;5015575;28;20229;-92
2021/05/27 11:12:32;;;;;;;4.20;0.97;;;12.10;99.90;;;;;;5015591;28;20206;-92
2021/05/27 11:15:16;;;;;;;3.93;1.30;;;12.10;99.90;;;;;;5014379;28;20213;-91
2021/05/27 11:18:06;;;;;;;4.13;1.00;;;12.00;99.90;;;;;;5014853;28;20259;-91
2021/05/27 11:20:37;;;;;;;3.93;1.10;;;11.90;99.90;;;;;;5015111;28;20270;-91
2021/05/27 11:23:27;;;;;;;2.73;1.30;;;11.80;99.90;;;;;;5014917;28;20229;-91
2021/05/27 11:26:19;;;;;;;3.93;1.20;;;11.70;99.90;;;;;;5014165;28;20217;-91
2021/05/27 11:29:09;;;;;;;3.53;1.00;;;11.50;99.90;;;;;;5014154;28;20232;-91
2021/05/27 11:31:48;;;;;;;1.83;1.10;;;11.30;99.90;;;;;;5014615;28;20263;-92
2021/05/27 11:34:19;;;;;;;1.73;0.90;;;11.10;99.90;;;;;;5014244;28;20229;-92
2021/05/27 11:37:01;;;;;;;2.10;1.10;;;11.00;99.90;;;;;;5014811;28;20578;-91
2021/05/27 11:39:34;;;;;;;2.27;1.17;;;11.00;99.90;;;;;;5014518;28;20309;-91
2021/05/27 11:42:10;;;;;;;5.97;1.70;;;10.90;99.90;;;;;;5015933;28;20244;-91
2021/05/27 11:44:57;;;;;;;6.47;1.00;;;10.90;99.90;;;;;;5014491;28;20627;-90
2021/05/27 11:47:28;;;;;;;4.40;1.30;;;10.80;99.90;;;;;;5015333;28;20205;-91
2021/05/27 11:50:11;;;;;;;2.03;1.27;;;10.80;99.90;;;;;;5014571;28;20249;-91
2021/05/27 11:52:43;;;;;;;4.00;1.50;;;10.80;99.90;;;;;;5014230;28;20611;-91
2021/05/27 11:55:15;;;;;;;4.57;1.53;;;10.80;99.90;;;;;;4997483;28;20213;-91
2021/05/27 11:57:47;;;;;;;3.27;1.50;;;10.80;99.90;;;;;;5014726;28;20202;-91
2021/05/27 12:00:19;;;;;;;4.47;1.50;;;10.80;99.90;;;;;;5014795;28;20328;-91
2021/05/27 12:02:52;;;;;;;2.57;1.40;;;10.80;99.90;;;;;;5014350;28;20288;-91
2021/05/27 12:05:25;;;;;;;2.57;1.50;;;10.80;99.90;;;;;;5013726;28;20197;-91
2021/05/27 12:08:00;;;;;;;2.40;1.50;;;10.80;99.90;;;;;;5032663;28;20213;-90
2021/05/27 12:10:34;;;;;;;3.20;1.30;;;10.80;99.90;;;;;;5018564;28;20292;-89
2021/05/27 12:13:16;;;;;;;3.10;1.40;;;10.80;99.90;;;;;;5019477;28;20291;-91
2021/05/27 12:15:48;;;;;;;2.73;1.73;;;10.80;99.90;;;;;;5019598;28;20344;-91
2021/05/27 12:18:21;;;;;;;7.00;2.30;;;10.80;99.90;;;;;;5027944;28;20236;-91
2021/05/27 12:20:52;;;;;;;5.50;2.10;;;10.90;99.90;;;;;;5038107;28;20198;-91
2021/05/27 12:23:22;;;;;;;1.83;1.40;;;10.90;99.90;;;;;;5022109;28;20217;-91
2021/05/27 12:25:54;;;;;;;1.67;1.57;;;10.80;99.90;;;;;;5014709;28;20212;-91
2021/05/27 12:28:26;;;;;;;5.43;1.90;;;10.80;99.90;;;;;;5013764;28;20210;-91
2021/05/27 12:30:59;;;;;;;4.10;2.20;;;10.90;99.90;;;;;;5018190;28;20236;-90
2021/05/27 12:33:32;;;;;;;2.70;1.87;;;10.90;99.90;;;;;;5050078;28;20264;-92
2021/05/27 12:36:07;;;;;;;4.50;1.83;;;10.90;99.90;;;;;;5053479;28;20642;-92
2021/05/27 12:38:46;;;;;;;6.97;2.43;;;10.90;99.90;;;;;;5053502;28;20231;-92
2021/05/27 12:41:19;;;;;;;4.47;2.13;;;11.00;99.90;;;;;;5053141;28;20251;-91
2021/05/27 12:43:50;;;;;;;2.60;1.80;;;11.10;99.90;;;;;;5043578;28;20576;-91
2021/05/27 12:46:35;;;;;;;2.93;1.53;;;11.10;99.90;;;;;;5033030;28;20209;-91
2021/05/27 12:49:06;;;;;;;3.40;1.73;;;11.10;99.90;;;;;;5033268;28;20562;-91
2021/05/27 12:51:40;;;;;;;2.63;1.90;;;11.10;99.90;;;;;;5032893;28;20213;-91
2021/05/27 12:54:11;;;;;;;3.40;1.83;;;11.20;99.90;;;;;;5030498;28;20201;-91
2021/05/27 12:56:44;;;;;;;3.03;1.60;;;11.20;99.90;;;;;;5030935;28;20568;-91
2021/05/27 12:59:16;;;;;;;3.20;1.90;;;11.30;99.90;;;;;;5014322;28;20249;-91
2021/05/27 13:01:49;;;;;;;3.33;1.43;;;11.10;99.90;;;;;;5025364;28;20213;-89
2021/05/27 13:04:28;;;;;;;4.20;1.40;;;11.00;99.90;;;;;;5020381;28;20248;-91
2021/05/27 13:07:09;;;;;;;2.43;1.60;;;10.90;99.90;;;;;;5023874;28;20201;-91
2021/05/27 13:09:49;;;;;;;5.83;1.90;;;11.00;99.90;;;;;;5034557;28;20201;-91
2021/05/27 13:12:23;;;;;;;8.30;2.00;;;11.10;99.90;;;;;;5036862;28;20225;-91
2021/05/27 13:15:04;;;;;;;3.27;1.90;;;11.00;99.90;;;;;;5033258;28;20206;-91
2021/05/27 13:17:35;;;;;;;7.47;1.83;;;11.10;99.90;;;;;;5033331;28;20198;-91
2021/05/27 13:20:08;;;;;;;4.53;1.77;;;11.00;99.90;;;;;;5028403;28;20315;-91
2021/05/27 13:22:39;;;;;;;2.47;1.47;;;11.00;99.90;;;;;;5018289;28;20260;-92
2021/05/27 13:25:12;;;;;;;2.33;1.50;;;10.90;99.90;;;;;;5020264;28;20301;-92
2021/05/27 13:27:50;;;;;;;1.93;1.50;;;10.80;99.90;;;;;;5019529;28;20280;-92
2021/05/27 13:30:28;;;;;;;1.60;1.50;;;10.80;99.90;;;;;;5019308;28;20597;-91
2021/05/27 13:33:06;;;;;;;2.63;1.70;;;10.80;99.90;;;;;;5000469;28;20576;-92
2021/05/27 13:35:37;;;;;;;5.97;1.80;;;10.70;99.90;;;;;;5017639;28;20241;-92